Terminal Aerodrome Forecast
Issued by NWS Rapid City, SD

Home | Current Version | Previous Version | Text Only | Print | Product List | Glossary Off
Versions: 1 2 3 4 5 6 7 8 9 10 11 12 13 14 15 16 17 18 19 20 21 22 23 24 25 26 27

000
FTUS43 KUNR 041120
TAFRAP
TAF
KRAP 041120Z 0412/0512 15008KT P6SM -SHRA OVC050
     FM041800 14015G25KT P6SM BKN100
     FM050100 14007KT P6SM BKN250=

USA.gov is the U.S. government's official web portal to all federal, state and local government web resources and services.